sensor_id;sensor_type;location;lat;lon;timestamp;P1;durP1;ratioP1;P2;durP2;ratioP2
43682;SDS011;29285;52.128;21.060;2023-11-21T00:04:00;12.30;;;8.30;;
43682;SDS011;29285;52.128;21.060;2023-11-21T00:09:02;11.00;;;8.10;;
43682;SDS011;29285;52.128;21.060;2023-11-21T00:14:03;16.00;;;9.70;;
43682;SDS011;29285;52.128;21.060;2023-11-21T00:19:04;19.20;;;9.70;;
43682;SDS011;29285;52.128;21.060;2023-11-21T00:24:05;14.20;;;9.90;;
43682;SDS011;29285;52.128;21.060;2023-11-21T00:29:06;16.70;;;10.80;;
43682;SDS011;29285;52.128;21.060;2023-11-21T00:34:11;15.90;;;10.70;;
43682;SDS011;29285;52.128;21.060;2023-11-21T00:39:13;19.60;;;11.60;;
43682;SDS011;29285;52.128;21.060;2023-11-21T00:49:18;19.20;;;12.80;;
43682;SDS011;29285;52.128;21.060;2023-11-21T00:54:19;19.50;;;12.20;;
43682;SDS011;29285;52.128;21.060;2023-11-21T00:59:20;19.00;;;12.70;;
43682;SDS011;29285;52.128;21.060;2023-11-21T01:04:23;16.90;;;10.70;;
43682;SDS011;29285;52.128;21.060;2023-11-21T01:09:24;16.30;;;11.20;;
43682;SDS011;29285;52.128;21.060;2023-11-21T01:14:26;18.20;;;10.80;;
43682;SDS011;29285;52.128;21.060;2023-11-21T01:19:27;18.70;;;12.00;;
43682;SDS011;29285;52.128;21.060;2023-11-21T01:24:29;18.30;;;11.80;;
43682;SDS011;29285;52.128;21.060;2023-11-21T01:29:30;19.50;;;12.00;;
43682;SDS011;29285;52.128;21.060;2023-11-21T01:34:31;19.30;;;11.80;;
43682;SDS011;29285;52.128;21.060;2023-11-21T01:39:32;18.90;;;14.20;;
43682;SDS011;29285;52.128;21.060;2023-11-21T01:44:33;18.20;;;13.40;;
43682;SDS011;29285;52.128;21.060;2023-11-21T01:49:34;21.00;;;12.90;;
43682;SDS011;29285;52.128;21.060;2023-11-21T01:54:36;18.60;;;12.40;;
43682;SDS011;29285;52.128;21.060;2023-11-21T01:59:38;21.10;;;13.50;;
43682;SDS011;29285;52.128;21.060;2023-11-21T02:09:43;19.20;;;12.10;;
43682;SDS011;29285;52.128;21.060;2023-11-21T02:14:45;19.00;;;12.90;;
43682;SDS011;29285;52.128;21.060;2023-11-21T02:19:47;19.60;;;13.90;;
43682;SDS011;29285;52.128;21.060;2023-11-21T02:24:51;18.70;;;13.10;;
43682;SDS011;29285;52.128;21.060;2023-11-21T02:29:53;21.60;;;14.20;;
43682;SDS011;29285;52.128;21.060;2023-11-21T02:34:54;21.20;;;12.40;;
43682;SDS011;29285;52.128;21.060;2023-11-21T02:39:56;20.10;;;13.30;;
43682;SDS011;29285;52.128;21.060;2023-11-21T02:44:57;19.90;;;12.70;;
43682;SDS011;29285;52.128;21.060;2023-11-21T02:49:58;19.70;;;12.80;;
43682;SDS011;29285;52.128;21.060;2023-11-21T02:54:59;16.30;;;11.10;;
43682;SDS011;29285;52.128;21.060;2023-11-21T03:00:00;18.90;;;12.80;;
43682;SDS011;29285;52.128;21.060;2023-11-21T03:05:01;16.00;;;12.00;;
43682;SDS011;29285;52.128;21.060;2023-11-21T03:10:02;18.10;;;11.60;;
43682;SDS011;29285;52.128;21.060;2023-11-21T03:15:05;17.80;;;12.00;;
43682;SDS011;29285;52.128;21.060;2023-11-21T03:20:06;13.10;;;9.90;;
43682;SDS011;29285;52.128;21.060;2023-11-21T03:25:11;14.00;;;9.80;;
43682;SDS011;29285;52.128;21.060;2023-11-21T03:30:12;16.80;;;10.50;;
43682;SDS011;29285;52.128;21.060;2023-11-21T03:35:13;13.60;;;10.60;;
43682;SDS011;29285;52.128;21.060;2023-11-21T03:40:14;16.60;;;10.50;;
43682;SDS011;29285;52.128;21.060;2023-11-21T03:45:15;15.10;;;10.50;;
43682;SDS011;29285;52.128;21.060;2023-11-21T03:50:16;13.10;;;9.60;;
43682;SDS011;29285;52.128;21.060;2023-11-21T03:55:17;16.90;;;10.60;;
43682;SDS011;29285;52.128;21.060;2023-11-21T04:00:18;15.90;;;10.00;;
43682;SDS011;29285;52.128;21.060;2023-11-21T04:05:20;14.40;;;10.30;;
43682;SDS011;29285;52.128;21.060;2023-11-21T04:10:22;15.20;;;9.60;;
43682;SDS011;29285;52.128;21.060;2023-11-21T04:15:23;13.10;;;9.60;;
43682;SDS011;29285;52.128;21.060;2023-11-21T04:20:24;15.90;;;9.70;;
43682;SDS011;29285;52.128;21.060;2023-11-21T04:25:25;14.50;;;10.30;;
43682;SDS011;29285;52.128;21.060;2023-11-21T04:30:27;14.70;;;9.80;;
43682;SDS011;29285;52.128;21.060;2023-11-21T04:35:28;13.80;;;9.00;;
43682;SDS011;29285;52.128;21.060;2023-11-21T04:40:29;12.90;;;8.80;;
43682;SDS011;29285;52.128;21.060;2023-11-21T04:45:30;14.30;;;10.30;;
43682;SDS011;29285;52.128;21.060;2023-11-21T04:50:31;11.40;;;8.50;;
43682;SDS011;29285;52.128;21.060;2023-11-21T04:55:32;14.40;;;9.40;;
43682;SDS011;29285;52.128;21.060;2023-11-21T05:00:33;13.10;;;8.40;;
43682;SDS011;29285;52.128;21.060;2023-11-21T05:05:34;12.20;;;8.10;;
43682;SDS011;29285;52.128;21.060;2023-11-21T05:10:35;9.20;;;7.00;;
43682;SDS011;29285;52.128;21.060;2023-11-21T05:15:38;10.50;;;7.30;;
43682;SDS011;29285;52.128;21.060;2023-11-21T05:20:40;10.40;;;7.40;;
43682;SDS011;29285;52.128;21.060;2023-11-21T05:25:41;10.00;;;7.30;;
43682;SDS011;29285;52.128;21.060;2023-11-21T05:30:42;9.60;;;7.20;;
43682;SDS011;29285;52.128;21.060;2023-11-21T05:35:43;9.90;;;7.40;;
43682;SDS011;29285;52.128;21.060;2023-11-21T05:40:44;9.30;;;6.60;;
43682;SDS011;29285;52.128;21.060;2023-11-21T05:45:45;8.80;;;7.50;;
43682;SDS011;29285;52.128;21.060;2023-11-21T05:50:46;7.70;;;6.60;;
43682;SDS011;29285;52.128;21.060;2023-11-21T05:55:46;8.60;;;5.90;;
43682;SDS011;29285;52.128;21.060;2023-11-21T06:00:48;7.90;;;6.60;;
43682;SDS011;29285;52.128;21.060;2023-11-21T06:05:49;6.90;;;5.70;;
43682;SDS011;29285;52.128;21.060;2023-11-21T06:10:50;10.20;;;6.30;;
43682;SDS011;29285;52.128;21.060;2023-11-21T06:15:51;9.80;;;6.30;;
43682;SDS011;29285;52.128;21.060;2023-11-21T06:20:52;8.90;;;5.90;;
43682;SDS011;29285;52.128;21.060;2023-11-21T06:25:53;7.40;;;5.60;;
43682;SDS011;29285;52.128;21.060;2023-11-21T06:30:54;9.10;;;6.40;;
43682;SDS011;29285;52.128;21.060;2023-11-21T06:35:55;8.60;;;6.00;;
43682;SDS011;29285;52.128;21.060;2023-11-21T06:40:56;7.90;;;5.70;;
43682;SDS011;29285;52.128;21.060;2023-11-21T06:45:58;9.50;;;5.60;;
43682;SDS011;29285;52.128;21.060;2023-11-21T06:50:59;7.80;;;5.70;;
43682;SDS011;29285;52.128;21.060;2023-11-21T06:56:00;8.90;;;5.90;;
43682;SDS011;29285;52.128;21.060;2023-11-21T07:01:01;8.20;;;5.10;;
43682;SDS011;29285;52.128;21.060;2023-11-21T07:06:03;6.80;;;5.50;;
43682;SDS011;29285;52.128;21.060;2023-11-21T07:11:04;13.80;;;7.30;;
43682;SDS011;29285;52.128;21.060;2023-11-21T07:16:05;9.20;;;6.20;;
43682;SDS011;29285;52.128;21.060;2023-11-21T07:21:07;9.90;;;6.20;;
43682;SDS011;29285;52.128;21.060;2023-11-21T07:26:09;8.10;;;5.40;;
43682;SDS011;29285;52.128;21.060;2023-11-21T07:31:11;8.60;;;6.30;;
43682;SDS011;29285;52.128;21.060;2023-11-21T07:36:13;9.00;;;6.00;;
43682;SDS011;29285;52.128;21.060;2023-11-21T07:41:15;8.90;;;6.90;;
43682;SDS011;29285;52.128;21.060;2023-11-21T07:46:18;11.20;;;8.00;;
43682;SDS011;29285;52.128;21.060;2023-11-21T07:51:20;9.10;;;6.70;;
43682;SDS011;29285;52.128;21.060;2023-11-21T07:56:22;8.10;;;6.00;;
43682;SDS011;29285;52.128;21.060;2023-11-21T08:01:23;7.70;;;6.70;;
43682;SDS011;29285;52.128;21.060;2023-11-21T08:06:24;8.50;;;6.20;;
43682;SDS011;29285;52.128;21.060;2023-11-21T08:11:26;9.40;;;7.60;;
43682;SDS011;29285;52.128;21.060;2023-11-21T08:16:29;11.40;;;6.90;;
43682;SDS011;29285;52.128;21.060;2023-11-21T08:21:31;8.00;;;6.20;;
43682;SDS011;29285;52.128;21.060;2023-11-21T08:26:32;8.70;;;6.70;;
43682;SDS011;29285;52.128;21.060;2023-11-21T08:31:33;9.80;;;6.90;;
43682;SDS011;29285;52.128;21.060;2023-11-21T08:36:34;9.80;;;6.90;;
43682;SDS011;29285;52.128;21.060;2023-11-21T08:41:35;9.80;;;6.90;;
43682;SDS011;29285;52.128;21.060;2023-11-21T08:46:37;12.00;;;6.80;;
43682;SDS011;29285;52.128;21.060;2023-11-21T08:51:39;9.60;;;6.20;;
43682;SDS011;29285;52.128;21.060;2023-11-21T08:56:40;8.20;;;6.60;;
43682;SDS011;29285;52.128;21.060;2023-11-21T09:01:43;8.20;;;6.80;;
43682;SDS011;29285;52.128;21.060;2023-11-21T09:06:44;9.50;;;6.80;;
43682;SDS011;29285;52.128;21.060;2023-11-21T09:11:45;9.60;;;6.30;;
43682;SDS011;29285;52.128;21.060;2023-11-21T09:16:49;10.80;;;7.80;;
43682;SDS011;29285;52.128;21.060;2023-11-21T09:21:51;11.80;;;7.60;;
43682;SDS011;29285;52.128;21.060;2023-11-21T09:26:52;10.40;;;7.00;;
43682;SDS011;29285;52.128;21.060;2023-11-21T09:31:53;8.40;;;6.50;;
43682;SDS011;29285;52.128;21.060;2023-11-21T09:36:55;11.30;;;8.40;;
43682;SDS011;29285;52.128;21.060;2023-11-21T09:41:59;14.90;;;7.50;;
43682;SDS011;29285;52.128;21.060;2023-11-21T09:47:09;12.60;;;8.20;;
43682;SDS011;29285;52.128;21.060;2023-11-21T09:52:27;10.70;;;7.70;;
43682;SDS011;29285;52.128;21.060;2023-11-21T10:02:30;11.80;;;7.80;;
43682;SDS011;29285;52.128;21.060;2023-11-21T10:07:36;11.30;;;8.60;;
43682;SDS011;29285;52.128;21.060;2023-11-21T10:12:39;9.50;;;7.50;;
43682;SDS011;29285;52.128;21.060;2023-11-21T10:17:43;12.90;;;9.30;;
43682;SDS011;29285;52.128;21.060;2023-11-21T10:22:46;12.50;;;8.90;;
43682;SDS011;29285;52.128;21.060;2023-11-21T10:27:48;11.90;;;8.50;;
43682;SDS011;29285;52.128;21.060;2023-11-21T10:32:54;12.40;;;8.40;;
43682;SDS011;29285;52.128;21.060;2023-11-21T10:38:00;12.80;;;9.40;;
43682;SDS011;29285;52.128;21.060;2023-11-21T10:43:10;12.50;;;8.30;;
43682;SDS011;29285;52.128;21.060;2023-11-21T10:48:13;14.00;;;10.40;;
43682;SDS011;29285;52.128;21.060;2023-11-21T10:53:18;15.00;;;9.20;;
43682;SDS011;29285;52.128;21.060;2023-11-21T10:58:19;17.60;;;10.70;;
43682;SDS011;29285;52.128;21.060;2023-11-21T11:03:20;10.70;;;8.30;;
43682;SDS011;29285;52.128;21.060;2023-11-21T11:08:23;12.40;;;9.10;;
43682;SDS011;29285;52.128;21.060;2023-11-21T11:18:29;12.20;;;8.30;;
43682;SDS011;29285;52.128;21.060;2023-11-21T11:23:49;12.20;;;8.00;;
43682;SDS011;29285;52.128;21.060;2023-11-21T11:34:40;12.20;;;8.30;;
43682;SDS011;29285;52.128;21.060;2023-11-21T11:39:46;12.10;;;8.60;;
43682;SDS011;29285;52.128;21.060;2023-11-21T11:44:47;16.50;;;9.50;;
43682;SDS011;29285;52.128;21.060;2023-11-21T11:49:56;12.90;;;8.50;;
43682;SDS011;29285;52.128;21.060;2023-11-21T11:54:59;11.70;;;7.80;;
43682;SDS011;29285;52.128;21.060;2023-11-21T12:00:07;13.00;;;8.80;;
43682;SDS011;29285;52.128;21.060;2023-11-21T12:05:12;12.20;;;8.10;;
43682;SDS011;29285;52.128;21.060;2023-11-21T12:10:15;13.40;;;9.00;;
43682;SDS011;29285;52.128;21.060;2023-11-21T12:15:19;10.90;;;7.60;;
43682;SDS011;29285;52.128;21.060;2023-11-21T12:20:21;11.30;;;7.80;;
43682;SDS011;29285;52.128;21.060;2023-11-21T12:25:26;13.50;;;9.70;;
43682;SDS011;29285;52.128;21.060;2023-11-21T12:30:35;13.80;;;9.00;;
43682;SDS011;29285;52.128;21.060;2023-11-21T12:35:38;13.90;;;9.00;;
43682;SDS011;29285;52.128;21.060;2023-11-21T12:40:39;12.70;;;8.90;;
43682;SDS011;29285;52.128;21.060;2023-11-21T12:45:40;13.70;;;8.80;;
43682;SDS011;29285;52.128;21.060;2023-11-21T12:50:41;12.10;;;8.90;;
43682;SDS011;29285;52.128;21.060;2023-11-21T12:55:43;12.40;;;8.70;;
43682;SDS011;29285;52.128;21.060;2023-11-21T13:00:50;13.00;;;7.90;;
43682;SDS011;29285;52.128;21.060;2023-11-21T13:05:55;11.60;;;8.30;;
43682;SDS011;29285;52.128;21.060;2023-11-21T13:10:57;17.00;;;9.80;;
43682;SDS011;29285;52.128;21.060;2023-11-21T13:16:00;12.80;;;8.80;;
43682;SDS011;29285;52.128;21.060;2023-11-21T13:21:02;13.40;;;9.50;;
43682;SDS011;29285;52.128;21.060;2023-11-21T13:26:10;14.00;;;9.80;;
43682;SDS011;29285;52.128;21.060;2023-11-21T13:31:12;11.50;;;8.70;;
43682;SDS011;29285;52.128;21.060;2023-11-21T13:36:33;12.10;;;7.80;;
43682;SDS011;29285;52.128;21.060;2023-11-21T13:41:35;12.10;;;8.20;;
43682;SDS011;29285;52.128;21.060;2023-11-21T13:46:38;14.10;;;8.60;;
43682;SDS011;29285;52.128;21.060;2023-11-21T13:51:39;14.30;;;8.00;;
43682;SDS011;29285;52.128;21.060;2023-11-21T13:56:46;13.40;;;9.30;;
43682;SDS011;29285;52.128;21.060;2023-11-21T14:01:47;13.40;;;8.10;;
43682;SDS011;29285;52.128;21.060;2023-11-21T14:06:55;14.60;;;9.30;;
43682;SDS011;29285;52.128;21.060;2023-11-21T14:11:57;11.30;;;8.20;;
43682;SDS011;29285;52.128;21.060;2023-11-21T14:16:58;17.10;;;9.40;;
43682;SDS011;29285;52.128;21.060;2023-11-21T14:22:07;13.00;;;8.50;;
43682;SDS011;29285;52.128;21.060;2023-11-21T14:27:10;14.60;;;9.90;;
43682;SDS011;29285;52.128;21.060;2023-11-21T14:32:11;11.40;;;8.50;;
43682;SDS011;29285;52.128;21.060;2023-11-21T14:37:12;15.30;;;9.00;;
43682;SDS011;29285;52.128;21.060;2023-11-21T14:42:14;14.00;;;9.20;;
43682;SDS011;29285;52.128;21.060;2023-11-21T14:47:15;12.40;;;8.70;;
43682;SDS011;29285;52.128;21.060;2023-11-21T14:52:17;12.10;;;9.40;;
43682;SDS011;29285;52.128;21.060;2023-11-21T14:57:33;15.10;;;10.20;;
43682;SDS011;29285;52.128;21.060;2023-11-21T15:02:34;14.80;;;10.30;;
43682;SDS011;29285;52.128;21.060;2023-11-21T15:07:50;12.70;;;8.90;;
43682;SDS011;29285;52.128;21.060;2023-11-21T15:12:56;12.60;;;9.20;;
43682;SDS011;29285;52.128;21.060;2023-11-21T15:17:58;14.80;;;9.50;;
43682;SDS011;29285;52.128;21.060;2023-11-21T15:22:59;14.30;;;8.50;;
43682;SDS011;29285;52.128;21.060;2023-11-21T15:28:01;13.90;;;9.30;;
43682;SDS011;29285;52.128;21.060;2023-11-21T15:33:03;12.60;;;9.20;;
43682;SDS011;29285;52.128;21.060;2023-11-21T15:38:05;17.70;;;11.20;;
43682;SDS011;29285;52.128;21.060;2023-11-21T15:43:08;14.60;;;9.60;;
43682;SDS011;29285;52.128;21.060;2023-11-21T15:48:09;14.20;;;8.70;;
43682;SDS011;29285;52.128;21.060;2023-11-21T15:53:10;14.30;;;9.40;;
43682;SDS011;29285;52.128;21.060;2023-11-21T15:58:12;13.90;;;8.40;;
43682;SDS011;29285;52.128;21.060;2023-11-21T16:03:13;13.60;;;8.60;;
43682;SDS011;29285;52.128;21.060;2023-11-21T16:08:15;11.70;;;8.20;;
43682;SDS011;29285;52.128;21.060;2023-11-21T16:13:17;12.50;;;8.10;;
43682;SDS011;29285;52.128;21.060;2023-11-21T16:18:19;10.70;;;7.40;;
43682;SDS011;29285;52.128;21.060;2023-11-21T16:23:20;13.20;;;8.10;;
43682;SDS011;29285;52.128;21.060;2023-11-21T16:28:23;10.80;;;8.00;;
43682;SDS011;29285;52.128;21.060;2023-11-21T16:33:25;11.80;;;7.20;;
43682;SDS011;29285;52.128;21.060;2023-11-21T16:38:26;13.30;;;8.00;;
43682;SDS011;29285;52.128;21.060;2023-11-21T16:43:27;10.30;;;6.50;;
43682;SDS011;29285;52.128;21.060;2023-11-21T16:48:28;12.20;;;7.80;;
43682;SDS011;29285;52.128;21.060;2023-11-21T16:53:29;11.80;;;7.50;;
43682;SDS011;29285;52.128;21.060;2023-11-21T16:58:30;10.60;;;7.40;;
43682;SDS011;29285;52.128;21.060;2023-11-21T17:03:32;10.10;;;6.80;;
43682;SDS011;29285;52.128;21.060;2023-11-21T17:08:33;10.80;;;7.90;;
43682;SDS011;29285;52.128;21.060;2023-11-21T17:13:34;10.30;;;7.10;;
43682;SDS011;29285;52.128;21.060;2023-11-21T17:18:35;10.90;;;7.50;;
43682;SDS011;29285;52.128;21.060;2023-11-21T17:23:36;12.30;;;6.90;;
43682;SDS011;29285;52.128;21.060;2023-11-21T17:28:37;11.00;;;6.60;;
43682;SDS011;29285;52.128;21.060;2023-11-21T17:33:38;10.60;;;6.60;;
43682;SDS011;29285;52.128;21.060;2023-11-21T17:38:39;10.10;;;6.60;;
43682;SDS011;29285;52.128;21.060;2023-11-21T17:43:40;10.70;;;7.10;;
43682;SDS011;29285;52.128;21.060;2023-11-21T17:48:42;11.00;;;5.80;;
43682;SDS011;29285;52.128;21.060;2023-11-21T17:53:43;11.30;;;7.40;;
43682;SDS011;29285;52.128;21.060;2023-11-21T17:58:47;8.90;;;6.50;;
43682;SDS011;29285;52.128;21.060;2023-11-21T18:03:48;10.50;;;6.70;;
43682;SDS011;29285;52.128;21.060;2023-11-21T18:08:49;7.70;;;5.80;;
43682;SDS011;29285;52.128;21.060;2023-11-21T18:13:51;9.10;;;6.20;;
43682;SDS011;29285;52.128;21.060;2023-11-21T18:18:52;8.20;;;5.80;;
43682;SDS011;29285;52.128;21.060;2023-11-21T18:23:53;8.40;;;6.30;;
43682;SDS011;29285;52.128;21.060;2023-11-21T18:28:54;9.10;;;5.90;;
43682;SDS011;29285;52.128;21.060;2023-11-21T18:33:55;8.00;;;5.80;;
43682;SDS011;29285;52.128;21.060;2023-11-21T18:38:56;13.00;;;6.30;;
43682;SDS011;29285;52.128;21.060;2023-11-21T18:43:57;9.20;;;5.80;;
43682;SDS011;29285;52.128;21.060;2023-11-21T18:48:58;10.90;;;6.60;;
43682;SDS011;29285;52.128;21.060;2023-11-21T18:53:59;9.80;;;5.40;;
43682;SDS011;29285;52.128;21.060;2023-11-21T18:59:00;9.60;;;5.60;;
43682;SDS011;29285;52.128;21.060;2023-11-21T19:04:01;8.80;;;5.50;;
43682;SDS011;29285;52.128;21.060;2023-11-21T19:09:02;12.50;;;6.80;;
43682;SDS011;29285;52.128;21.060;2023-11-21T19:14:04;12.00;;;6.80;;
43682;SDS011;29285;52.128;21.060;2023-11-21T19:19:05;10.50;;;6.50;;
43682;SDS011;29285;52.128;21.060;2023-11-21T19:24:07;9.50;;;5.80;;
43682;SDS011;29285;52.128;21.060;2023-11-21T19:29:08;11.40;;;7.00;;
43682;SDS011;29285;52.128;21.060;2023-11-21T19:34:09;11.80;;;6.70;;
43682;SDS011;29285;52.128;21.060;2023-11-21T19:39:10;10.60;;;6.40;;
43682;SDS011;29285;52.128;21.060;2023-11-21T19:44:11;13.70;;;7.30;;
43682;SDS011;29285;52.128;21.060;2023-11-21T19:49:14;9.30;;;5.20;;
43682;SDS011;29285;52.128;21.060;2023-11-21T19:54:15;10.90;;;6.00;;
43682;SDS011;29285;52.128;21.060;2023-11-21T19:59:16;12.70;;;6.90;;
43682;SDS011;29285;52.128;21.060;2023-11-21T20:04:17;10.10;;;6.20;;
43682;SDS011;29285;52.128;21.060;2023-11-21T20:09:18;10.20;;;6.10;;
43682;SDS011;29285;52.128;21.060;2023-11-21T20:14:19;12.00;;;6.00;;
43682;SDS011;29285;52.128;21.060;2023-11-21T20:19:20;8.80;;;5.80;;
43682;SDS011;29285;52.128;21.060;2023-11-21T20:24:21;14.20;;;6.40;;
43682;SDS011;29285;52.128;21.060;2023-11-21T20:29:22;8.90;;;5.40;;
43682;SDS011;29285;52.128;21.060;2023-11-21T20:34:23;9.30;;;5.10;;
43682;SDS011;29285;52.128;21.060;2023-11-21T20:39:24;8.70;;;5.30;;
43682;SDS011;29285;52.128;21.060;2023-11-21T20:44:25;8.30;;;4.80;;
43682;SDS011;29285;52.128;21.060;2023-11-21T20:49:26;7.50;;;4.90;;
43682;SDS011;29285;52.128;21.060;2023-11-21T20:54:27;7.10;;;5.10;;
43682;SDS011;29285;52.128;21.060;2023-11-21T20:59:28;11.60;;;7.30;;
43682;SDS011;29285;52.128;21.060;2023-11-21T21:04:29;8.90;;;5.80;;
43682;SDS011;29285;52.128;21.060;2023-11-21T21:09:31;8.80;;;5.40;;
43682;SDS011;29285;52.128;21.060;2023-11-21T21:14:33;8.30;;;5.50;;
43682;SDS011;29285;52.128;21.060;2023-11-21T21:19:34;10.20;;;7.40;;
43682;SDS011;29285;52.128;21.060;2023-11-21T21:24:35;13.80;;;7.70;;
43682;SDS011;29285;52.128;21.060;2023-11-21T21:29:35;10.60;;;6.80;;
43682;SDS011;29285;52.128;21.060;2023-11-21T21:34:36;11.70;;;7.00;;
43682;SDS011;29285;52.128;21.060;2023-11-21T21:39:39;11.60;;;7.30;;
43682;SDS011;29285;52.128;21.060;2023-11-21T21:44:40;11.60;;;6.50;;
43682;SDS011;29285;52.128;21.060;2023-11-21T21:49:42;10.00;;;5.80;;
43682;SDS011;29285;52.128;21.060;2023-11-21T21:54:43;10.90;;;6.80;;
43682;SDS011;29285;52.128;21.060;2023-11-21T21:59:44;11.00;;;7.00;;
43682;SDS011;29285;52.128;21.060;2023-11-21T22:04:49;15.90;;;6.30;;
43682;SDS011;29285;52.128;21.060;2023-11-21T22:09:51;11.60;;;7.30;;
43682;SDS011;29285;52.128;21.060;2023-11-21T22:14:52;9.80;;;6.00;;
43682;SDS011;29285;52.128;21.060;2023-11-21T22:19:53;14.70;;;8.40;;
43682;SDS011;29285;52.128;21.060;2023-11-21T22:24:55;11.10;;;6.30;;
43682;SDS011;29285;52.128;21.060;2023-11-21T22:29:56;10.60;;;6.70;;
43682;SDS011;29285;52.128;21.060;2023-11-21T22:34:57;10.00;;;6.70;;
43682;SDS011;29285;52.128;21.060;2023-11-21T22:39:57;10.10;;;6.80;;
43682;SDS011;29285;52.128;21.060;2023-11-21T22:44:58;10.60;;;5.70;;
43682;SDS011;29285;52.128;21.060;2023-11-21T22:50:00;11.10;;;6.60;;
43682;SDS011;29285;52.128;21.060;2023-11-21T22:55:01;14.40;;;7.90;;
43682;SDS011;29285;52.128;21.060;2023-11-21T23:00:02;14.30;;;7.20;;
43682;SDS011;29285;52.128;21.060;2023-11-21T23:05:12;13.60;;;6.70;;
43682;SDS011;29285;52.128;21.060;2023-11-21T23:10:14;11.30;;;6.70;;
43682;SDS011;29285;52.128;21.060;2023-11-21T23:15:15;12.50;;;6.70;;
43682;SDS011;29285;52.128;21.060;2023-11-21T23:20:17;11.80;;;6.90;;
43682;SDS011;29285;52.128;21.060;2023-11-21T23:25:22;10.10;;;6.50;;
43682;SDS011;29285;52.128;21.060;2023-11-21T23:30:22;10.50;;;6.30;;
43682;SDS011;29285;52.128;21.060;2023-11-21T23:35:24;9.90;;;6.50;;
43682;SDS011;29285;52.128;21.060;2023-11-21T23:40:25;10.10;;;6.10;;
43682;SDS011;29285;52.128;21.060;2023-11-21T23:45:26;9.10;;;5.10;;
43682;SDS011;29285;52.128;21.060;2023-11-21T23:50:28;10.40;;;6.10;;
43682;SDS011;29285;52.128;21.060;2023-11-21T23:55:29;10.50;;;6.20;;
